<?xml version="1.0" encoding="UTF-8" standalone="no" ?>
<gpx xmlns="http://www.topografix.com/GPX/1/1" xmlns:xsi="http://www.w3.org/2001/XMLSchema-instance" xsi:schemaLocation="http://www.topografix.com/GPX/1/1 http://www.topografix.com/GPX/1/1/gpx.xsd" version="1.1" creator="VisuGPX - https://www.visugpx.com">
  <metadata>
    <name>TANUS LES 2 VIADUCS 001 001</name>
  </metadata>
  <wpt lat="44.10253" lon="2.31895">
    <ele>438.51953125</ele>
    <name><![CDATA[DéPART TANUS LES 2 VIADUCS]]></name>
    <type><![CDATA[user]]></type>
  </wpt>
  <trk>
    <name><![CDATA[TANUS LES 2 VIADUCS 001 001]]></name>
    <trkseg>
      <trkpt lat="44.10206" lon="2.3185">
        <ele>445.71</ele>
        <time>2015-04-07T13:06:28Z</time>
      </trkpt>
      <trkpt lat="44.10209" lon="2.31862">
        <ele>445.71</ele>
        <time>2015-04-07T13:06:35Z</time>
      </trkpt>
      <trkpt lat="44.10211" lon="2.31868">
        <ele>445.71</ele>
        <time>2015-04-07T13:06:40Z</time>
      </trkpt>
      <trkpt lat="44.10212" lon="2.31879">
        <ele>445.71</ele>
        <time>2015-04-07T13:06:46Z</time>
      </trkpt>
      <trkpt lat="44.10214" lon="2.31908">
        <ele>445.71</ele>
        <time>2015-04-07T13:07:05Z</time>
      </trkpt>
      <trkpt lat="44.1022" lon="2.31938">
        <ele>445.71</ele>
        <time>2015-04-07T13:07:24Z</time>
      </trkpt>
      <trkpt lat="44.10225" lon="2.31968">
        <ele>445.71</ele>
        <time>2015-04-07T13:07:42Z</time>
      </trkpt>
      <trkpt lat="44.1023" lon="2.31997">
        <ele>446.19</ele>
        <time>2015-04-07T13:08:01Z</time>
      </trkpt>
      <trkpt lat="44.10232" lon="2.3202">
        <ele>446.19</ele>
        <time>2015-04-07T13:08:17Z</time>
      </trkpt>
      <trkpt lat="44.10231" lon="2.32032">
        <ele>444.75</ele>
        <time>2015-04-07T13:08:31Z</time>
      </trkpt>
      <trkpt lat="44.1023" lon="2.32037">
        <ele>444.75</ele>
        <time>2015-04-07T13:08:43Z</time>
      </trkpt>
      <trkpt lat="44.10231" lon="2.32041">
        <ele>444.75</ele>
        <time>2015-04-07T13:08:46Z</time>
      </trkpt>
      <trkpt lat="44.10236" lon="2.32056">
        <ele>444.27</ele>
        <time>2015-04-07T13:08:56Z</time>
      </trkpt>
      <trkpt lat="44.1024" lon="2.32068">
        <ele>443.79</ele>
        <time>2015-04-07T13:09:03Z</time>
      </trkpt>
      <trkpt lat="44.10247" lon="2.32104">
        <ele>441.86</ele>
        <time>2015-04-07T13:09:25Z</time>
      </trkpt>
      <trkpt lat="44.10255" lon="2.3213">
        <ele>440.9</ele>
        <time>2015-04-07T13:09:42Z</time>
      </trkpt>
      <trkpt lat="44.10262" lon="2.32159">
        <ele>440.42</ele>
        <time>2015-04-07T13:10:00Z</time>
      </trkpt>
      <trkpt lat="44.10272" lon="2.3219">
        <ele>439.46</ele>
        <time>2015-04-07T13:10:19Z</time>
      </trkpt>
      <trkpt lat="44.10279" lon="2.32216">
        <ele>438.5</ele>
        <time>2015-04-07T13:10:37Z</time>
      </trkpt>
      <trkpt lat="44.10287" lon="2.32243">
        <ele>437.54</ele>
        <time>2015-04-07T13:10:54Z</time>
      </trkpt>
      <trkpt lat="44.10297" lon="2.32268">
        <ele>436.1</ele>
        <time>2015-04-07T13:11:12Z</time>
      </trkpt>
      <trkpt lat="44.10309" lon="2.32292">
        <ele>434.65</ele>
        <time>2015-04-07T13:11:30Z</time>
      </trkpt>
      <trkpt lat="44.10324" lon="2.32316">
        <ele>433.21</ele>
        <time>2015-04-07T13:11:49Z</time>
      </trkpt>
      <trkpt lat="44.10337" lon="2.32341">
        <ele>431.77</ele>
        <time>2015-04-07T13:12:07Z</time>
      </trkpt>
      <trkpt lat="44.10352" lon="2.3237">
        <ele>430.33</ele>
        <time>2015-04-07T13:12:27Z</time>
      </trkpt>
      <trkpt lat="44.1037" lon="2.32401">
        <ele>429.85</ele>
        <time>2015-04-07T13:12:49Z</time>
      </trkpt>
      <trkpt lat="44.10385" lon="2.32428">
        <ele>430.33</ele>
        <time>2015-04-07T13:13:08Z</time>
      </trkpt>
      <trkpt lat="44.10391" lon="2.32434">
        <ele>430.33</ele>
        <time>2015-04-07T13:13:14Z</time>
      </trkpt>
      <trkpt lat="44.10398" lon="2.32463">
        <ele>430.33</ele>
        <time>2015-04-07T13:13:32Z</time>
      </trkpt>
      <trkpt lat="44.10401" lon="2.325">
        <ele>430.33</ele>
        <time>2015-04-07T13:13:55Z</time>
      </trkpt>
      <trkpt lat="44.104" lon="2.32514">
        <ele>429.85</ele>
        <time>2015-04-07T13:14:04Z</time>
      </trkpt>
      <trkpt lat="44.10401" lon="2.3252">
        <ele>429.85</ele>
        <time>2015-04-07T13:14:08Z</time>
      </trkpt>
      <trkpt lat="44.10401" lon="2.32547">
        <ele>427.92</ele>
        <time>2015-04-07T13:14:25Z</time>
      </trkpt>
      <trkpt lat="44.10399" lon="2.32571">
        <ele>426.48</ele>
        <time>2015-04-07T13:14:41Z</time>
      </trkpt>
      <trkpt lat="44.10393" lon="2.32599">
        <ele>425.04</ele>
        <time>2015-04-07T13:14:58Z</time>
      </trkpt>
      <trkpt lat="44.10391" lon="2.32613">
        <ele>424.08</ele>
        <time>2015-04-07T13:15:06Z</time>
      </trkpt>
      <trkpt lat="44.1038" lon="2.32644">
        <ele>423.6</ele>
        <time>2015-04-07T13:15:27Z</time>
      </trkpt>
      <trkpt lat="44.10374" lon="2.32664">
        <ele>423.6</ele>
        <time>2015-04-07T13:15:41Z</time>
      </trkpt>
      <trkpt lat="44.10373" lon="2.3267">
        <ele>423.6</ele>
        <time>2015-04-07T13:15:45Z</time>
      </trkpt>
      <trkpt lat="44.10374" lon="2.32682">
        <ele>423.6</ele>
        <time>2015-04-07T13:15:53Z</time>
      </trkpt>
      <trkpt lat="44.10377" lon="2.32684">
        <ele>423.12</ele>
        <time>2015-04-07T13:15:57Z</time>
      </trkpt>
      <trkpt lat="44.10394" lon="2.32686">
        <ele>423.12</ele>
        <time>2015-04-07T13:16:13Z</time>
      </trkpt>
      <trkpt lat="44.1041" lon="2.32684">
        <ele>424.56</ele>
        <time>2015-04-07T13:16:28Z</time>
      </trkpt>
      <trkpt lat="44.10432" lon="2.32679">
        <ele>426</ele>
        <time>2015-04-07T13:16:48Z</time>
      </trkpt>
      <trkpt lat="44.10456" lon="2.32675">
        <ele>428.4</ele>
        <time>2015-04-07T13:17:07Z</time>
      </trkpt>
      <trkpt lat="44.10479" lon="2.32671">
        <ele>430.33</ele>
        <time>2015-04-07T13:17:27Z</time>
      </trkpt>
      <trkpt lat="44.10499" lon="2.32669">
        <ele>432.25</ele>
        <time>2015-04-07T13:17:44Z</time>
      </trkpt>
      <trkpt lat="44.10523" lon="2.32663">
        <ele>434.17</ele>
        <time>2015-04-07T13:18:04Z</time>
      </trkpt>
      <trkpt lat="44.10545" lon="2.32651">
        <ele>434.65</ele>
        <time>2015-04-07T13:18:23Z</time>
      </trkpt>
      <trkpt lat="44.10567" lon="2.32638">
        <ele>435.61</ele>
        <time>2015-04-07T13:18:42Z</time>
      </trkpt>
      <trkpt lat="44.10571" lon="2.32636">
        <ele>435.61</ele>
        <time>2015-04-07T13:18:46Z</time>
      </trkpt>
      <trkpt lat="44.10593" lon="2.32627">
        <ele>436.58</ele>
        <time>2015-04-07T13:19:06Z</time>
      </trkpt>
      <trkpt lat="44.10618" lon="2.32627">
        <ele>438.5</ele>
        <time>2015-04-07T13:19:27Z</time>
      </trkpt>
      <trkpt lat="44.10622" lon="2.32627">
        <ele>438.5</ele>
        <time>2015-04-07T13:19:32Z</time>
      </trkpt>
      <trkpt lat="44.10644" lon="2.32629">
        <ele>439.46</ele>
        <time>2015-04-07T13:19:51Z</time>
      </trkpt>
      <trkpt lat="44.1067" lon="2.32637">
        <ele>440.42</ele>
        <time>2015-04-07T13:20:13Z</time>
      </trkpt>
      <trkpt lat="44.10696" lon="2.32646">
        <ele>441.38</ele>
        <time>2015-04-07T13:20:35Z</time>
      </trkpt>
      <trkpt lat="44.1072" lon="2.32655">
        <ele>442.34</ele>
        <time>2015-04-07T13:20:56Z</time>
      </trkpt>
      <trkpt lat="44.10742" lon="2.32664">
        <ele>443.31</ele>
        <time>2015-04-07T13:21:15Z</time>
      </trkpt>
      <trkpt lat="44.10765" lon="2.32672">
        <ele>443.31</ele>
        <time>2015-04-07T13:21:34Z</time>
      </trkpt>
      <trkpt lat="44.10786" lon="2.32679">
        <ele>442.82</ele>
        <time>2015-04-07T13:21:51Z</time>
      </trkpt>
      <trkpt lat="44.10813" lon="2.32688">
        <ele>443.31</ele>
        <time>2015-04-07T13:22:13Z</time>
      </trkpt>
      <trkpt lat="44.10815" lon="2.3269">
        <ele>443.31</ele>
        <time>2015-04-07T13:22:15Z</time>
      </trkpt>
      <trkpt lat="44.10824" lon="2.32688">
        <ele>443.31</ele>
        <time>2015-04-07T13:22:26Z</time>
      </trkpt>
      <trkpt lat="44.10844" lon="2.32696">
        <ele>441.86</ele>
        <time>2015-04-07T13:22:45Z</time>
      </trkpt>
      <trkpt lat="44.10871" lon="2.32701">
        <ele>440.9</ele>
        <time>2015-04-07T13:23:07Z</time>
      </trkpt>
      <trkpt lat="44.10898" lon="2.32708">
        <ele>440.42</ele>
        <time>2015-04-07T13:23:29Z</time>
      </trkpt>
      <trkpt lat="44.10924" lon="2.32713">
        <ele>439.94</ele>
        <time>2015-04-07T13:23:50Z</time>
      </trkpt>
      <trkpt lat="44.1095" lon="2.32717">
        <ele>439.46</ele>
        <time>2015-04-07T13:24:11Z</time>
      </trkpt>
      <trkpt lat="44.10978" lon="2.3272">
        <ele>439.46</ele>
        <time>2015-04-07T13:24:33Z</time>
      </trkpt>
      <trkpt lat="44.11004" lon="2.32721">
        <ele>438.98</ele>
        <time>2015-04-07T13:24:54Z</time>
      </trkpt>
      <trkpt lat="44.11024" lon="2.32714">
        <ele>438.5</ele>
        <time>2015-04-07T13:25:12Z</time>
      </trkpt>
      <trkpt lat="44.1103" lon="2.32713">
        <ele>438.5</ele>
        <time>2015-04-07T13:25:17Z</time>
      </trkpt>
      <trkpt lat="44.11054" lon="2.327">
        <ele>438.02</ele>
        <time>2015-04-07T13:25:37Z</time>
      </trkpt>
      <trkpt lat="44.11076" lon="2.32687">
        <ele>438.02</ele>
        <time>2015-04-07T13:25:56Z</time>
      </trkpt>
      <trkpt lat="44.11101" lon="2.3267">
        <ele>438.02</ele>
        <time>2015-04-07T13:26:18Z</time>
      </trkpt>
      <trkpt lat="44.11127" lon="2.32654">
        <ele>437.06</ele>
        <time>2015-04-07T13:26:40Z</time>
      </trkpt>
      <trkpt lat="44.11154" lon="2.3264">
        <ele>436.58</ele>
        <time>2015-04-07T13:27:02Z</time>
      </trkpt>
      <trkpt lat="44.11181" lon="2.32624">
        <ele>436.1</ele>
        <time>2015-04-07T13:27:25Z</time>
      </trkpt>
      <trkpt lat="44.11207" lon="2.32609">
        <ele>435.61</ele>
        <time>2015-04-07T13:27:47Z</time>
      </trkpt>
      <trkpt lat="44.11231" lon="2.32587">
        <ele>435.13</ele>
        <time>2015-04-07T13:28:09Z</time>
      </trkpt>
      <trkpt lat="44.11255" lon="2.32561">
        <ele>435.13</ele>
        <time>2015-04-07T13:28:33Z</time>
      </trkpt>
      <trkpt lat="44.11274" lon="2.3254">
        <ele>435.13</ele>
        <time>2015-04-07T13:28:52Z</time>
      </trkpt>
      <trkpt lat="44.11299" lon="2.3252">
        <ele>436.1</ele>
        <time>2015-04-07T13:29:15Z</time>
      </trkpt>
      <trkpt lat="44.11323" lon="2.32501">
        <ele>436.58</ele>
        <time>2015-04-07T13:29:37Z</time>
      </trkpt>
      <trkpt lat="44.1135" lon="2.32483">
        <ele>437.06</ele>
        <time>2015-04-07T13:30:01Z</time>
      </trkpt>
      <trkpt lat="44.11376" lon="2.32467">
        <ele>437.06</ele>
        <time>2015-04-07T13:30:24Z</time>
      </trkpt>
      <trkpt lat="44.114" lon="2.32455">
        <ele>437.06</ele>
        <time>2015-04-07T13:30:44Z</time>
      </trkpt>
      <trkpt lat="44.11425" lon="2.32441">
        <ele>435.61</ele>
        <time>2015-04-07T13:31:05Z</time>
      </trkpt>
      <trkpt lat="44.1145" lon="2.32424">
        <ele>434.65</ele>
        <time>2015-04-07T13:31:27Z</time>
      </trkpt>
      <trkpt lat="44.11471" lon="2.32408">
        <ele>434.17</ele>
        <time>2015-04-07T13:31:47Z</time>
      </trkpt>
      <trkpt lat="44.11487" lon="2.32388">
        <ele>434.17</ele>
        <time>2015-04-07T13:32:07Z</time>
      </trkpt>
      <trkpt lat="44.11506" lon="2.32367">
        <ele>434.17</ele>
        <time>2015-04-07T13:32:27Z</time>
      </trkpt>
      <trkpt lat="44.11526" lon="2.32349">
        <ele>433.69</ele>
        <time>2015-04-07T13:32:46Z</time>
      </trkpt>
      <trkpt lat="44.11547" lon="2.32329">
        <ele>433.69</ele>
        <time>2015-04-07T13:33:07Z</time>
      </trkpt>
      <trkpt lat="44.11571" lon="2.32306">
        <ele>433.69</ele>
        <time>2015-04-07T13:33:30Z</time>
      </trkpt>
      <trkpt lat="44.11593" lon="2.32287">
        <ele>433.69</ele>
        <time>2015-04-07T13:33:50Z</time>
      </trkpt>
      <trkpt lat="44.1162" lon="2.32262">
        <ele>433.69</ele>
        <time>2015-04-07T13:34:15Z</time>
      </trkpt>
      <trkpt lat="44.1164" lon="2.32242">
        <ele>433.69</ele>
        <time>2015-04-07T13:34:35Z</time>
      </trkpt>
      <trkpt lat="44.11648" lon="2.32233">
        <ele>433.69</ele>
        <time>2015-04-07T13:34:44Z</time>
      </trkpt>
      <trkpt lat="44.11669" lon="2.32211">
        <ele>433.69</ele>
        <time>2015-04-07T13:35:04Z</time>
      </trkpt>
      <trkpt lat="44.1169" lon="2.32191">
        <ele>433.69</ele>
        <time>2015-04-07T13:35:24Z</time>
      </trkpt>
      <trkpt lat="44.11711" lon="2.32178">
        <ele>433.21</ele>
        <time>2015-04-07T13:35:42Z</time>
      </trkpt>
      <trkpt lat="44.11736" lon="2.32169">
        <ele>431.29</ele>
        <time>2015-04-07T13:36:03Z</time>
      </trkpt>
      <trkpt lat="44.11763" lon="2.32166">
        <ele>428.4</ele>
        <time>2015-04-07T13:36:25Z</time>
      </trkpt>
      <trkpt lat="44.11785" lon="2.32162">
        <ele>426</ele>
        <time>2015-04-07T13:36:44Z</time>
      </trkpt>
      <trkpt lat="44.11811" lon="2.32157">
        <ele>424.56</ele>
        <time>2015-04-07T13:37:05Z</time>
      </trkpt>
      <trkpt lat="44.11835" lon="2.32152">
        <ele>422.64</ele>
        <time>2015-04-07T13:37:25Z</time>
      </trkpt>
      <trkpt lat="44.11862" lon="2.32146">
        <ele>421.19</ele>
        <time>2015-04-07T13:37:48Z</time>
      </trkpt>
      <trkpt lat="44.11891" lon="2.32144">
        <ele>419.75</ele>
        <time>2015-04-07T13:38:12Z</time>
      </trkpt>
      <trkpt lat="44.11913" lon="2.3215">
        <ele>417.35</ele>
        <time>2015-04-07T13:38:31Z</time>
      </trkpt>
      <trkpt lat="44.11926" lon="2.32156">
        <ele>414.47</ele>
        <time>2015-04-07T13:38:45Z</time>
      </trkpt>
      <trkpt lat="44.1194" lon="2.32156">
        <ele>411.58</ele>
        <time>2015-04-07T13:38:59Z</time>
      </trkpt>
      <trkpt lat="44.11952" lon="2.32156">
        <ele>409.66</ele>
        <time>2015-04-07T13:39:14Z</time>
      </trkpt>
      <trkpt lat="44.11954" lon="2.32155">
        <ele>409.18</ele>
        <time>2015-04-07T13:39:16Z</time>
      </trkpt>
      <trkpt lat="44.11971" lon="2.32143">
        <ele>406.77</ele>
        <time>2015-04-07T13:39:34Z</time>
      </trkpt>
      <trkpt lat="44.11982" lon="2.32132">
        <ele>403.89</ele>
        <time>2015-04-07T13:39:48Z</time>
      </trkpt>
      <trkpt lat="44.11991" lon="2.32124">
        <ele>401.01</ele>
        <time>2015-04-07T13:40:00Z</time>
      </trkpt>
      <trkpt lat="44.12001" lon="2.32116">
        <ele>398.6</ele>
        <time>2015-04-07T13:40:12Z</time>
      </trkpt>
      <trkpt lat="44.12017" lon="2.32105">
        <ele>396.2</ele>
        <time>2015-04-07T13:40:27Z</time>
      </trkpt>
      <trkpt lat="44.12024" lon="2.321">
        <ele>394.76</ele>
        <time>2015-04-07T13:40:34Z</time>
      </trkpt>
      <trkpt lat="44.12041" lon="2.32091">
        <ele>392.84</ele>
        <time>2015-04-07T13:40:48Z</time>
      </trkpt>
      <trkpt lat="44.12048" lon="2.32088">
        <ele>391.87</ele>
        <time>2015-04-07T13:40:54Z</time>
      </trkpt>
      <trkpt lat="44.1207" lon="2.32081">
        <ele>388.99</ele>
        <time>2015-04-07T13:41:11Z</time>
      </trkpt>
      <trkpt lat="44.12081" lon="2.32078">
        <ele>386.59</ele>
        <time>2015-04-07T13:41:21Z</time>
      </trkpt>
      <trkpt lat="44.12099" lon="2.32075">
        <ele>383.7</ele>
        <time>2015-04-07T13:41:36Z</time>
      </trkpt>
      <trkpt lat="44.12116" lon="2.32073">
        <ele>380.34</ele>
        <time>2015-04-07T13:41:51Z</time>
      </trkpt>
      <trkpt lat="44.12118" lon="2.32073">
        <ele>380.34</ele>
        <time>2015-04-07T13:41:52Z</time>
      </trkpt>
      <trkpt lat="44.12129" lon="2.32076">
        <ele>377.94</ele>
        <time>2015-04-07T13:42:02Z</time>
      </trkpt>
      <trkpt lat="44.12144" lon="2.3208">
        <ele>376.01</ele>
        <time>2015-04-07T13:42:15Z</time>
      </trkpt>
      <trkpt lat="44.12154" lon="2.32087">
        <ele>375.05</ele>
        <time>2015-04-07T13:42:24Z</time>
      </trkpt>
      <trkpt lat="44.12158" lon="2.32086">
        <ele>374.57</ele>
        <time>2015-04-07T13:42:28Z</time>
      </trkpt>
      <trkpt lat="44.12161" lon="2.32082">
        <ele>373.61</ele>
        <time>2015-04-07T13:42:42Z</time>
      </trkpt>
      <trkpt lat="44.12161" lon="2.32082">
        <ele>373.61</ele>
        <time>2015-04-07T13:42:45Z</time>
      </trkpt>
      <trkpt lat="44.12161" lon="2.32098">
        <ele>370.24</ele>
        <time>2015-04-07T13:48:48Z</time>
      </trkpt>
      <trkpt lat="44.12156" lon="2.32103">
        <ele>369.28</ele>
        <time>2015-04-07T13:49:01Z</time>
      </trkpt>
      <trkpt lat="44.12152" lon="2.32118">
        <ele>368.8</ele>
        <time>2015-04-07T13:49:14Z</time>
      </trkpt>
      <trkpt lat="44.12151" lon="2.32127">
        <ele>368.8</ele>
        <time>2015-04-07T13:49:30Z</time>
      </trkpt>
      <trkpt lat="44.12147" lon="2.32144">
        <ele>368.32</ele>
        <time>2015-04-07T13:49:47Z</time>
      </trkpt>
      <trkpt lat="44.12139" lon="2.3217">
        <ele>367.84</ele>
        <time>2015-04-07T13:50:01Z</time>
      </trkpt>
      <trkpt lat="44.12135" lon="2.32184">
        <ele>366.88</ele>
        <time>2015-04-07T13:50:17Z</time>
      </trkpt>
      <trkpt lat="44.12126" lon="2.32206">
        <ele>366.4</ele>
        <time>2015-04-07T13:50:33Z</time>
      </trkpt>
      <trkpt lat="44.12109" lon="2.3224">
        <ele>366.4</ele>
        <time>2015-04-07T13:50:47Z</time>
      </trkpt>
      <trkpt lat="44.121" lon="2.32259">
        <ele>366.4</ele>
        <time>2015-04-07T13:51:00Z</time>
      </trkpt>
      <trkpt lat="44.12095" lon="2.32271">
        <ele>365.92</ele>
        <time>2015-04-07T13:51:15Z</time>
      </trkpt>
      <trkpt lat="44.12093" lon="2.32279">
        <ele>365.92</ele>
        <time>2015-04-07T13:51:31Z</time>
      </trkpt>
      <trkpt lat="44.12092" lon="2.32287">
        <ele>365.92</ele>
        <time>2015-04-07T13:51:44Z</time>
      </trkpt>
      <trkpt lat="44.12098" lon="2.32304">
        <ele>365.92</ele>
        <time>2015-04-07T13:51:59Z</time>
      </trkpt>
      <trkpt lat="44.12115" lon="2.32308">
        <ele>365.92</ele>
        <time>2015-04-07T13:52:17Z</time>
      </trkpt>
      <trkpt lat="44.12124" lon="2.32305">
        <ele>367.36</ele>
        <time>2015-04-07T13:52:21Z</time>
      </trkpt>
      <trkpt lat="44.12141" lon="2.32302">
        <ele>369.28</ele>
        <time>2015-04-07T13:52:35Z</time>
      </trkpt>
      <trkpt lat="44.12166" lon="2.32289">
        <ele>370.24</ele>
        <time>2015-04-07T13:52:50Z</time>
      </trkpt>
      <trkpt lat="44.12182" lon="2.32287">
        <ele>370.73</ele>
        <time>2015-04-07T13:52:54Z</time>
      </trkpt>
      <trkpt lat="44.12198" lon="2.32289">
        <ele>372.17</ele>
        <time>2015-04-07T13:53:08Z</time>
      </trkpt>
      <trkpt lat="44.12212" lon="2.32295">
        <ele>373.13</ele>
        <time>2015-04-07T13:53:23Z</time>
      </trkpt>
      <trkpt lat="44.12221" lon="2.32302">
        <ele>374.09</ele>
        <time>2015-04-07T13:53:37Z</time>
      </trkpt>
      <trkpt lat="44.12225" lon="2.3231">
        <ele>374.09</ele>
        <time>2015-04-07T13:53:39Z</time>
      </trkpt>
      <trkpt lat="44.12234" lon="2.32321">
        <ele>375.53</ele>
        <time>2015-04-07T13:53:53Z</time>
      </trkpt>
      <trkpt lat="44.12234" lon="2.32339">
        <ele>376.97</ele>
        <time>2015-04-07T13:54:08Z</time>
      </trkpt>
      <trkpt lat="44.12234" lon="2.32354">
        <ele>377.45</ele>
        <time>2015-04-07T13:54:24Z</time>
      </trkpt>
      <trkpt lat="44.12236" lon="2.32373">
        <ele>377.94</ele>
        <time>2015-04-07T13:54:42Z</time>
      </trkpt>
      <trkpt lat="44.12239" lon="2.32383">
        <ele>380.34</ele>
        <time>2015-04-07T13:54:59Z</time>
      </trkpt>
      <trkpt lat="44.12238" lon="2.32397">
        <ele>405.33</ele>
        <time>2015-04-07T14:01:10Z</time>
      </trkpt>
      <trkpt lat="44.12237" lon="2.32398">
        <ele>406.29</ele>
        <time>2015-04-07T14:01:24Z</time>
      </trkpt>
      <trkpt lat="44.12235" lon="2.32399">
        <ele>406.77</ele>
        <time>2015-04-07T14:01:33Z</time>
      </trkpt>
      <trkpt lat="44.12236" lon="2.32401">
        <ele>406.29</ele>
        <time>2015-04-07T14:01:53Z</time>
      </trkpt>
      <trkpt lat="44.12236" lon="2.32404">
        <ele>406.29</ele>
        <time>2015-04-07T14:02:12Z</time>
      </trkpt>
      <trkpt lat="44.12236" lon="2.32407">
        <ele>406.77</ele>
        <time>2015-04-07T14:02:27Z</time>
      </trkpt>
      <trkpt lat="44.12235" lon="2.32415">
        <ele>407.26</ele>
        <time>2015-04-07T14:02:53Z</time>
      </trkpt>
      <trkpt lat="44.12236" lon="2.32423">
        <ele>407.26</ele>
        <time>2015-04-07T14:03:05Z</time>
      </trkpt>
      <trkpt lat="44.12236" lon="2.32422">
        <ele>407.26</ele>
        <time>2015-04-07T14:03:33Z</time>
      </trkpt>
      <trkpt lat="44.12235" lon="2.32423">
        <ele>407.26</ele>
        <time>2015-04-07T14:03:57Z</time>
      </trkpt>
      <trkpt lat="44.12235" lon="2.32428">
        <ele>407.26</ele>
        <time>2015-04-07T14:04:22Z</time>
      </trkpt>
      <trkpt lat="44.12234" lon="2.32445">
        <ele>408.22</ele>
        <time>2015-04-07T14:04:39Z</time>
      </trkpt>
      <trkpt lat="44.12234" lon="2.32465">
        <ele>408.7</ele>
        <time>2015-04-07T14:04:56Z</time>
      </trkpt>
      <trkpt lat="44.12233" lon="2.32487">
        <ele>409.18</ele>
        <time>2015-04-07T14:05:12Z</time>
      </trkpt>
      <trkpt lat="44.12233" lon="2.32507">
        <ele>409.66</ele>
        <time>2015-04-07T14:05:25Z</time>
      </trkpt>
      <trkpt lat="44.12231" lon="2.32536">
        <ele>411.1</ele>
        <time>2015-04-07T14:05:44Z</time>
      </trkpt>
      <trkpt lat="44.12231" lon="2.32563">
        <ele>411.58</ele>
        <time>2015-04-07T14:06:01Z</time>
      </trkpt>
      <trkpt lat="44.12231" lon="2.32571">
        <ele>412.06</ele>
        <time>2015-04-07T14:06:06Z</time>
      </trkpt>
      <trkpt lat="44.1223" lon="2.32598">
        <ele>413.02</ele>
        <time>2015-04-07T14:06:25Z</time>
      </trkpt>
      <trkpt lat="44.12229" lon="2.32622">
        <ele>413.98</ele>
        <time>2015-04-07T14:06:42Z</time>
      </trkpt>
      <trkpt lat="44.12229" lon="2.32629">
        <ele>413.98</ele>
        <time>2015-04-07T14:06:47Z</time>
      </trkpt>
      <trkpt lat="44.12229" lon="2.3265">
        <ele>415.43</ele>
        <time>2015-04-07T14:07:02Z</time>
      </trkpt>
      <trkpt lat="44.12228" lon="2.3267">
        <ele>415.91</ele>
        <time>2015-04-07T14:07:19Z</time>
      </trkpt>
      <trkpt lat="44.12229" lon="2.3269">
        <ele>416.39</ele>
        <time>2015-04-07T14:07:34Z</time>
      </trkpt>
      <trkpt lat="44.12231" lon="2.32703">
        <ele>416.39</ele>
        <time>2015-04-07T14:07:49Z</time>
      </trkpt>
      <trkpt lat="44.12232" lon="2.32706">
        <ele>415.43</ele>
        <time>2015-04-07T14:07:58Z</time>
      </trkpt>
      <trkpt lat="44.12236" lon="2.32713">
        <ele>413.98</ele>
        <time>2015-04-07T14:08:13Z</time>
      </trkpt>
      <trkpt lat="44.12239" lon="2.32728">
        <ele>412.54</ele>
        <time>2015-04-07T14:08:29Z</time>
      </trkpt>
      <trkpt lat="44.12239" lon="2.32747">
        <ele>412.54</ele>
        <time>2015-04-07T14:08:44Z</time>
      </trkpt>
      <trkpt lat="44.12241" lon="2.32766">
        <ele>410.14</ele>
        <time>2015-04-07T14:09:00Z</time>
      </trkpt>
      <trkpt lat="44.12243" lon="2.32782">
        <ele>407.74</ele>
        <time>2015-04-07T14:09:15Z</time>
      </trkpt>
      <trkpt lat="44.12242" lon="2.32802">
        <ele>405.81</ele>
        <time>2015-04-07T14:09:31Z</time>
      </trkpt>
      <trkpt lat="44.12242" lon="2.32822">
        <ele>404.37</ele>
        <time>2015-04-07T14:09:45Z</time>
      </trkpt>
      <trkpt lat="44.12241" lon="2.32839">
        <ele>402.93</ele>
        <time>2015-04-07T14:09:59Z</time>
      </trkpt>
      <trkpt lat="44.12237" lon="2.3285">
        <ele>404.37</ele>
        <time>2015-04-07T14:10:07Z</time>
      </trkpt>
      <trkpt lat="44.12233" lon="2.32861">
        <ele>403.89</ele>
        <time>2015-04-07T14:10:18Z</time>
      </trkpt>
      <trkpt lat="44.12234" lon="2.32875">
        <ele>401.01</ele>
        <time>2015-04-07T14:10:34Z</time>
      </trkpt>
      <trkpt lat="44.12235" lon="2.32889">
        <ele>398.12</ele>
        <time>2015-04-07T14:10:47Z</time>
      </trkpt>
      <trkpt lat="44.12237" lon="2.32906">
        <ele>395.72</ele>
        <time>2015-04-07T14:11:00Z</time>
      </trkpt>
      <trkpt lat="44.12239" lon="2.32924">
        <ele>392.84</ele>
        <time>2015-04-07T14:11:16Z</time>
      </trkpt>
      <trkpt lat="44.1224" lon="2.3294">
        <ele>390.43</ele>
        <time>2015-04-07T14:11:30Z</time>
      </trkpt>
      <trkpt lat="44.12239" lon="2.32956">
        <ele>388.51</ele>
        <time>2015-04-07T14:11:44Z</time>
      </trkpt>
      <trkpt lat="44.12238" lon="2.32976">
        <ele>385.63</ele>
        <time>2015-04-07T14:11:59Z</time>
      </trkpt>
      <trkpt lat="44.12238" lon="2.32995">
        <ele>383.22</ele>
        <time>2015-04-07T14:12:15Z</time>
      </trkpt>
      <trkpt lat="44.12237" lon="2.33006">
        <ele>381.78</ele>
        <time>2015-04-07T14:12:30Z</time>
      </trkpt>
      <trkpt lat="44.12239" lon="2.33014">
        <ele>379.86</ele>
        <time>2015-04-07T14:12:44Z</time>
      </trkpt>
      <trkpt lat="44.12247" lon="2.33018">
        <ele>377.94</ele>
        <time>2015-04-07T14:12:58Z</time>
      </trkpt>
      <trkpt lat="44.12254" lon="2.33014">
        <ele>376.49</ele>
        <time>2015-04-07T14:13:09Z</time>
      </trkpt>
      <trkpt lat="44.12256" lon="2.33012">
        <ele>375.53</ele>
        <time>2015-04-07T14:13:14Z</time>
      </trkpt>
      <trkpt lat="44.12258" lon="2.33009">
        <ele>375.05</ele>
        <time>2015-04-07T14:13:17Z</time>
      </trkpt>
      <trkpt lat="44.12264" lon="2.33">
        <ele>373.13</ele>
        <time>2015-04-07T14:13:29Z</time>
      </trkpt>
      <trkpt lat="44.12269" lon="2.32992">
        <ele>372.17</ele>
        <time>2015-04-07T14:13:37Z</time>
      </trkpt>
      <trkpt lat="44.12271" lon="2.32986">
        <ele>371.21</ele>
        <time>2015-04-07T14:13:42Z</time>
      </trkpt>
      <trkpt lat="44.12274" lon="2.32975">
        <ele>370.24</ele>
        <time>2015-04-07T14:13:50Z</time>
      </trkpt>
      <trkpt lat="44.12278" lon="2.32967">
        <ele>368.32</ele>
        <time>2015-04-07T14:14:02Z</time>
      </trkpt>
      <trkpt lat="44.12278" lon="2.32973">
        <ele>365.92</ele>
        <time>2015-04-07T14:14:19Z</time>
      </trkpt>
      <trkpt lat="44.12279" lon="2.32984">
        <ele>364</ele>
        <time>2015-04-07T14:14:33Z</time>
      </trkpt>
      <trkpt lat="44.12274" lon="2.32996">
        <ele>363.04</ele>
        <time>2015-04-07T14:14:49Z</time>
      </trkpt>
      <trkpt lat="44.12273" lon="2.33003">
        <ele>362.55</ele>
        <time>2015-04-07T14:15:09Z</time>
      </trkpt>
      <trkpt lat="44.12268" lon="2.33002">
        <ele>362.55</ele>
        <time>2015-04-07T14:15:32Z</time>
      </trkpt>
      <trkpt lat="44.1227" lon="2.33007">
        <ele>361.59</ele>
        <time>2015-04-07T14:15:48Z</time>
      </trkpt>
      <trkpt lat="44.12269" lon="2.33027">
        <ele>360.63</ele>
        <time>2015-04-07T14:16:03Z</time>
      </trkpt>
      <trkpt lat="44.12271" lon="2.33039">
        <ele>359.67</ele>
        <time>2015-04-07T14:16:18Z</time>
      </trkpt>
      <trkpt lat="44.12272" lon="2.33045">
        <ele>358.23</ele>
        <time>2015-04-07T14:16:34Z</time>
      </trkpt>
      <trkpt lat="44.12277" lon="2.33042">
        <ele>355.83</ele>
        <time>2015-04-07T14:16:49Z</time>
      </trkpt>
      <trkpt lat="44.12284" lon="2.33035">
        <ele>353.42</ele>
        <time>2015-04-07T14:17:04Z</time>
      </trkpt>
      <trkpt lat="44.12281" lon="2.33038">
        <ele>351.02</ele>
        <time>2015-04-07T14:17:18Z</time>
      </trkpt>
      <trkpt lat="44.12284" lon="2.33042">
        <ele>349.58</ele>
        <time>2015-04-07T14:17:32Z</time>
      </trkpt>
      <trkpt lat="44.12292" lon="2.33039">
        <ele>347.17</ele>
        <time>2015-04-07T14:17:47Z</time>
      </trkpt>
      <trkpt lat="44.12296" lon="2.33035">
        <ele>345.73</ele>
        <time>2015-04-07T14:18:01Z</time>
      </trkpt>
      <trkpt lat="44.12294" lon="2.33039">
        <ele>343.81</ele>
        <time>2015-04-07T14:18:15Z</time>
      </trkpt>
      <trkpt lat="44.12294" lon="2.33043">
        <ele>342.37</ele>
        <time>2015-04-07T14:18:31Z</time>
      </trkpt>
      <trkpt lat="44.12296" lon="2.33045">
        <ele>341.41</ele>
        <time>2015-04-07T14:18:45Z</time>
      </trkpt>
      <trkpt lat="44.12303" lon="2.33045">
        <ele>338.52</ele>
        <time>2015-04-07T14:18:57Z</time>
      </trkpt>
      <trkpt lat="44.12301" lon="2.33046">
        <ele>335.64</ele>
        <time>2015-04-07T14:19:12Z</time>
      </trkpt>
      <trkpt lat="44.123" lon="2.3305">
        <ele>334.68</ele>
        <time>2015-04-07T14:19:27Z</time>
      </trkpt>
      <trkpt lat="44.12304" lon="2.33059">
        <ele>333.23</ele>
        <time>2015-04-07T14:19:43Z</time>
      </trkpt>
      <trkpt lat="44.12307" lon="2.33058">
        <ele>332.27</ele>
        <time>2015-04-07T14:19:55Z</time>
      </trkpt>
      <trkpt lat="44.12312" lon="2.33051">
        <ele>330.35</ele>
        <time>2015-04-07T14:20:08Z</time>
      </trkpt>
      <trkpt lat="44.12318" lon="2.33046">
        <ele>328.43</ele>
        <time>2015-04-07T14:20:21Z</time>
      </trkpt>
      <trkpt lat="44.12324" lon="2.33034">
        <ele>326.99</ele>
        <time>2015-04-07T14:20:37Z</time>
      </trkpt>
      <trkpt lat="44.12329" lon="2.33024">
        <ele>325.06</ele>
        <time>2015-04-07T14:20:57Z</time>
      </trkpt>
      <trkpt lat="44.12324" lon="2.33027">
        <ele>323.14</ele>
        <time>2015-04-07T14:21:13Z</time>
      </trkpt>
      <trkpt lat="44.12323" lon="2.33033">
        <ele>321.22</ele>
        <time>2015-04-07T14:21:29Z</time>
      </trkpt>
      <trkpt lat="44.12329" lon="2.33042">
        <ele>319.3</ele>
        <time>2015-04-07T14:21:44Z</time>
      </trkpt>
      <trkpt lat="44.12334" lon="2.33041">
        <ele>316.41</ele>
        <time>2015-04-07T14:21:59Z</time>
      </trkpt>
      <trkpt lat="44.12337" lon="2.33038">
        <ele>313.53</ele>
        <time>2015-04-07T14:22:15Z</time>
      </trkpt>
      <trkpt lat="44.12343" lon="2.33032">
        <ele>312.57</ele>
        <time>2015-04-07T14:22:32Z</time>
      </trkpt>
      <trkpt lat="44.12349" lon="2.33025">
        <ele>310.16</ele>
        <time>2015-04-07T14:22:48Z</time>
      </trkpt>
      <trkpt lat="44.12354" lon="2.33015">
        <ele>310.16</ele>
        <time>2015-04-07T14:23:05Z</time>
      </trkpt>
      <trkpt lat="44.12358" lon="2.33">
        <ele>310.64</ele>
        <time>2015-04-07T14:23:20Z</time>
      </trkpt>
      <trkpt lat="44.12361" lon="2.32993">
        <ele>311.12</ele>
        <time>2015-04-07T14:23:33Z</time>
      </trkpt>
      <trkpt lat="44.12371" lon="2.32983">
        <ele>309.2</ele>
        <time>2015-04-07T14:23:48Z</time>
      </trkpt>
      <trkpt lat="44.12375" lon="2.32971">
        <ele>309.2</ele>
        <time>2015-04-07T14:24:00Z</time>
      </trkpt>
      <trkpt lat="44.12377" lon="2.32951">
        <ele>309.2</ele>
        <time>2015-04-07T14:24:13Z</time>
      </trkpt>
      <trkpt lat="44.12382" lon="2.32934">
        <ele>309.68</ele>
        <time>2015-04-07T14:24:25Z</time>
      </trkpt>
      <trkpt lat="44.12383" lon="2.32916">
        <ele>309.68</ele>
        <time>2015-04-07T14:24:38Z</time>
      </trkpt>
      <trkpt lat="44.12387" lon="2.32893">
        <ele>310.16</ele>
        <time>2015-04-07T14:24:53Z</time>
      </trkpt>
      <trkpt lat="44.12391" lon="2.32868">
        <ele>310.16</ele>
        <time>2015-04-07T14:25:08Z</time>
      </trkpt>
      <trkpt lat="44.12396" lon="2.32846">
        <ele>310.64</ele>
        <time>2015-04-07T14:25:22Z</time>
      </trkpt>
      <trkpt lat="44.12397" lon="2.32833">
        <ele>310.64</ele>
        <time>2015-04-07T14:25:33Z</time>
      </trkpt>
      <trkpt lat="44.12399" lon="2.32811">
        <ele>311.12</ele>
        <time>2015-04-07T14:25:50Z</time>
      </trkpt>
      <trkpt lat="44.12402" lon="2.32794">
        <ele>311.12</ele>
        <time>2015-04-07T14:26:05Z</time>
      </trkpt>
      <trkpt lat="44.12403" lon="2.3278">
        <ele>311.12</ele>
        <time>2015-04-07T14:26:17Z</time>
      </trkpt>
      <trkpt lat="44.12404" lon="2.32766">
        <ele>311.12</ele>
        <time>2015-04-07T14:26:30Z</time>
      </trkpt>
      <trkpt lat="44.1241" lon="2.32747">
        <ele>311.6</ele>
        <time>2015-04-07T14:26:44Z</time>
      </trkpt>
      <trkpt lat="44.12414" lon="2.32728">
        <ele>311.6</ele>
        <time>2015-04-07T14:26:57Z</time>
      </trkpt>
      <trkpt lat="44.12417" lon="2.32707">
        <ele>312.09</ele>
        <time>2015-04-07T14:27:13Z</time>
      </trkpt>
      <trkpt lat="44.1242" lon="2.32689">
        <ele>312.57</ele>
        <time>2015-04-07T14:27:27Z</time>
      </trkpt>
      <trkpt lat="44.12423" lon="2.32671">
        <ele>313.05</ele>
        <time>2015-04-07T14:27:39Z</time>
      </trkpt>
      <trkpt lat="44.12431" lon="2.32646">
        <ele>313.53</ele>
        <time>2015-04-07T14:27:57Z</time>
      </trkpt>
      <trkpt lat="44.12436" lon="2.32627">
        <ele>314.01</ele>
        <time>2015-04-07T14:28:09Z</time>
      </trkpt>
      <trkpt lat="44.12437" lon="2.32604">
        <ele>314.01</ele>
        <time>2015-04-07T14:28:22Z</time>
      </trkpt>
      <trkpt lat="44.12438" lon="2.32581">
        <ele>314.49</ele>
        <time>2015-04-07T14:28:35Z</time>
      </trkpt>
      <trkpt lat="44.1244" lon="2.32565">
        <ele>314.97</ele>
        <time>2015-04-07T14:28:45Z</time>
      </trkpt>
      <trkpt lat="44.12442" lon="2.32545">
        <ele>314.97</ele>
        <time>2015-04-07T14:28:59Z</time>
      </trkpt>
      <trkpt lat="44.12444" lon="2.32525">
        <ele>315.45</ele>
        <time>2015-04-07T14:29:14Z</time>
      </trkpt>
      <trkpt lat="44.12442" lon="2.32505">
        <ele>315.45</ele>
        <time>2015-04-07T14:29:28Z</time>
      </trkpt>
      <trkpt lat="44.12443" lon="2.32499">
        <ele>315.45</ele>
        <time>2015-04-07T14:29:31Z</time>
      </trkpt>
      <trkpt lat="44.12442" lon="2.32475">
        <ele>315.45</ele>
        <time>2015-04-07T14:29:46Z</time>
      </trkpt>
      <trkpt lat="44.12444" lon="2.32451">
        <ele>315.93</ele>
        <time>2015-04-07T14:30:01Z</time>
      </trkpt>
      <trkpt lat="44.12446" lon="2.32432">
        <ele>315.93</ele>
        <time>2015-04-07T14:30:14Z</time>
      </trkpt>
      <trkpt lat="44.12445" lon="2.32412">
        <ele>315.93</ele>
        <time>2015-04-07T14:30:27Z</time>
      </trkpt>
      <trkpt lat="44.12444" lon="2.324">
        <ele>315.93</ele>
        <time>2015-04-07T14:30:35Z</time>
      </trkpt>
      <trkpt lat="44.12441" lon="2.32377">
        <ele>315.45</ele>
        <time>2015-04-07T14:30:49Z</time>
      </trkpt>
      <trkpt lat="44.12438" lon="2.32356">
        <ele>315.45</ele>
        <time>2015-04-07T14:31:02Z</time>
      </trkpt>
      <trkpt lat="44.12436" lon="2.32342">
        <ele>316.89</ele>
        <time>2015-04-07T14:31:17Z</time>
      </trkpt>
      <trkpt lat="44.12434" lon="2.32333">
        <ele>319.78</ele>
        <time>2015-04-07T14:31:29Z</time>
      </trkpt>
      <trkpt lat="44.1243" lon="2.32313">
        <ele>321.22</ele>
        <time>2015-04-07T14:31:42Z</time>
      </trkpt>
      <trkpt lat="44.12429" lon="2.32298">
        <ele>320.74</ele>
        <time>2015-04-07T14:31:57Z</time>
      </trkpt>
      <trkpt lat="44.1243" lon="2.3229">
        <ele>319.78</ele>
        <time>2015-04-07T14:32:04Z</time>
      </trkpt>
      <trkpt lat="44.12429" lon="2.32273">
        <ele>319.78</ele>
        <time>2015-04-07T14:32:17Z</time>
      </trkpt>
      <trkpt lat="44.12424" lon="2.32256">
        <ele>319.3</ele>
        <time>2015-04-07T14:32:30Z</time>
      </trkpt>
      <trkpt lat="44.12425" lon="2.32229">
        <ele>319.3</ele>
        <time>2015-04-07T14:32:44Z</time>
      </trkpt>
      <trkpt lat="44.12421" lon="2.32197">
        <ele>319.3</ele>
        <time>2015-04-07T14:33:00Z</time>
      </trkpt>
      <trkpt lat="44.12411" lon="2.32169">
        <ele>319.3</ele>
        <time>2015-04-07T14:33:16Z</time>
      </trkpt>
      <trkpt lat="44.12399" lon="2.32145">
        <ele>319.3</ele>
        <time>2015-04-07T14:33:33Z</time>
      </trkpt>
      <trkpt lat="44.12389" lon="2.3212">
        <ele>319.3</ele>
        <time>2015-04-07T14:33:50Z</time>
      </trkpt>
      <trkpt lat="44.12376" lon="2.32097">
        <ele>320.26</ele>
        <time>2015-04-07T14:34:08Z</time>
      </trkpt>
      <trkpt lat="44.12374" lon="2.32092">
        <ele>320.74</ele>
        <time>2015-04-07T14:34:12Z</time>
      </trkpt>
      <trkpt lat="44.12372" lon="2.32088">
        <ele>320.74</ele>
        <time>2015-04-07T14:34:15Z</time>
      </trkpt>
      <trkpt lat="44.12365" lon="2.32075">
        <ele>320.74</ele>
        <time>2015-04-07T14:34:25Z</time>
      </trkpt>
      <trkpt lat="44.12354" lon="2.3206">
        <ele>322.18</ele>
        <time>2015-04-07T14:34:41Z</time>
      </trkpt>
      <trkpt lat="44.12345" lon="2.32045">
        <ele>322.18</ele>
        <time>2015-04-07T14:34:55Z</time>
      </trkpt>
      <trkpt lat="44.1234" lon="2.32031">
        <ele>322.66</ele>
        <time>2015-04-07T14:35:07Z</time>
      </trkpt>
      <trkpt lat="44.12337" lon="2.32009">
        <ele>324.58</ele>
        <time>2015-04-07T14:35:23Z</time>
      </trkpt>
      <trkpt lat="44.1233" lon="2.31994">
        <ele>325.54</ele>
        <time>2015-04-07T14:35:35Z</time>
      </trkpt>
      <trkpt lat="44.12323" lon="2.3198">
        <ele>326.99</ele>
        <time>2015-04-07T14:35:49Z</time>
      </trkpt>
      <trkpt lat="44.12316" lon="2.31968">
        <ele>328.91</ele>
        <time>2015-04-07T14:36:02Z</time>
      </trkpt>
      <trkpt lat="44.12299" lon="2.31955">
        <ele>330.83</ele>
        <time>2015-04-07T14:36:17Z</time>
      </trkpt>
      <trkpt lat="44.12294" lon="2.31937">
        <ele>331.79</ele>
        <time>2015-04-07T14:36:32Z</time>
      </trkpt>
      <trkpt lat="44.12292" lon="2.31917">
        <ele>333.23</ele>
        <time>2015-04-07T14:36:46Z</time>
      </trkpt>
      <trkpt lat="44.12287" lon="2.31899">
        <ele>335.16</ele>
        <time>2015-04-07T14:37:00Z</time>
      </trkpt>
      <trkpt lat="44.12283" lon="2.31883">
        <ele>337.08</ele>
        <time>2015-04-07T14:37:14Z</time>
      </trkpt>
      <trkpt lat="44.12276" lon="2.31871">
        <ele>338.52</ele>
        <time>2015-04-07T14:37:26Z</time>
      </trkpt>
      <trkpt lat="44.12269" lon="2.31853">
        <ele>339.48</ele>
        <time>2015-04-07T14:37:40Z</time>
      </trkpt>
      <trkpt lat="44.12262" lon="2.31839">
        <ele>341.41</ele>
        <time>2015-04-07T14:37:53Z</time>
      </trkpt>
      <trkpt lat="44.12253" lon="2.31826">
        <ele>343.81</ele>
        <time>2015-04-07T14:38:07Z</time>
      </trkpt>
      <trkpt lat="44.12241" lon="2.31815">
        <ele>346.21</ele>
        <time>2015-04-07T14:38:22Z</time>
      </trkpt>
      <trkpt lat="44.12228" lon="2.31804">
        <ele>348.62</ele>
        <time>2015-04-07T14:38:37Z</time>
      </trkpt>
      <trkpt lat="44.12217" lon="2.31795">
        <ele>350.54</ele>
        <time>2015-04-07T14:38:52Z</time>
      </trkpt>
      <trkpt lat="44.12203" lon="2.31783">
        <ele>352.46</ele>
        <time>2015-04-07T14:39:09Z</time>
      </trkpt>
      <trkpt lat="44.12186" lon="2.31784">
        <ele>353.9</ele>
        <time>2015-04-07T14:39:26Z</time>
      </trkpt>
      <trkpt lat="44.12179" lon="2.31786">
        <ele>353.9</ele>
        <time>2015-04-07T14:39:39Z</time>
      </trkpt>
      <trkpt lat="44.12179" lon="2.31782">
        <ele>353.9</ele>
        <time>2015-04-07T14:39:54Z</time>
      </trkpt>
      <trkpt lat="44.12177" lon="2.31782">
        <ele>353.9</ele>
        <time>2015-04-07T14:40:24Z</time>
      </trkpt>
      <trkpt lat="44.12177" lon="2.31782">
        <ele>354.38</ele>
        <time>2015-04-07T14:40:44Z</time>
      </trkpt>
      <trkpt lat="44.12175" lon="2.31784">
        <ele>353.9</ele>
        <time>2015-04-07T14:41:00Z</time>
      </trkpt>
      <trkpt lat="44.12177" lon="2.31788">
        <ele>353.9</ele>
        <time>2015-04-07T14:41:26Z</time>
      </trkpt>
      <trkpt lat="44.12178" lon="2.31786">
        <ele>353.42</ele>
        <time>2015-04-07T14:41:51Z</time>
      </trkpt>
      <trkpt lat="44.12179" lon="2.31785">
        <ele>352.94</ele>
        <time>2015-04-07T14:42:27Z</time>
      </trkpt>
      <trkpt lat="44.12178" lon="2.31789">
        <ele>352.94</ele>
        <time>2015-04-07T14:42:54Z</time>
      </trkpt>
      <trkpt lat="44.12177" lon="2.31784">
        <ele>352.46</ele>
        <time>2015-04-07T14:43:19Z</time>
      </trkpt>
      <trkpt lat="44.12177" lon="2.31785">
        <ele>352.46</ele>
        <time>2015-04-07T14:43:36Z</time>
      </trkpt>
      <trkpt lat="44.12177" lon="2.31789">
        <ele>351.98</ele>
        <time>2015-04-07T14:44:01Z</time>
      </trkpt>
      <trkpt lat="44.12178" lon="2.31792">
        <ele>351.98</ele>
        <time>2015-04-07T14:44:29Z</time>
      </trkpt>
      <trkpt lat="44.12178" lon="2.31791">
        <ele>351.5</ele>
        <time>2015-04-07T14:44:57Z</time>
      </trkpt>
      <trkpt lat="44.12177" lon="2.31791">
        <ele>351.5</ele>
        <time>2015-04-07T14:45:19Z</time>
      </trkpt>
      <trkpt lat="44.12177" lon="2.31783">
        <ele>349.58</ele>
        <time>2015-04-07T14:45:39Z</time>
      </trkpt>
      <trkpt lat="44.12178" lon="2.31765">
        <ele>346.69</ele>
        <time>2015-04-07T14:45:55Z</time>
      </trkpt>
      <trkpt lat="44.12176" lon="2.31743">
        <ele>343.33</ele>
        <time>2015-04-07T14:46:11Z</time>
      </trkpt>
      <trkpt lat="44.12173" lon="2.3172">
        <ele>340.92</ele>
        <time>2015-04-07T14:46:30Z</time>
      </trkpt>
      <trkpt lat="44.12168" lon="2.31701">
        <ele>337.56</ele>
        <time>2015-04-07T14:46:46Z</time>
      </trkpt>
      <trkpt lat="44.12163" lon="2.31685">
        <ele>335.64</ele>
        <time>2015-04-07T14:47:01Z</time>
      </trkpt>
      <trkpt lat="44.1216" lon="2.31677">
        <ele>335.16</ele>
        <time>2015-04-07T14:47:08Z</time>
      </trkpt>
      <trkpt lat="44.12151" lon="2.31658">
        <ele>332.75</ele>
        <time>2015-04-07T14:47:25Z</time>
      </trkpt>
      <trkpt lat="44.12142" lon="2.31646">
        <ele>330.83</ele>
        <time>2015-04-07T14:47:41Z</time>
      </trkpt>
      <trkpt lat="44.12132" lon="2.31628">
        <ele>327.95</ele>
        <time>2015-04-07T14:47:57Z</time>
      </trkpt>
      <trkpt lat="44.12121" lon="2.31613">
        <ele>326.99</ele>
        <time>2015-04-07T14:48:12Z</time>
      </trkpt>
      <trkpt lat="44.12109" lon="2.31603">
        <ele>326.5</ele>
        <time>2015-04-07T14:48:26Z</time>
      </trkpt>
      <trkpt lat="44.12098" lon="2.31593">
        <ele>324.58</ele>
        <time>2015-04-07T14:48:42Z</time>
      </trkpt>
      <trkpt lat="44.12092" lon="2.31588">
        <ele>323.14</ele>
        <time>2015-04-07T14:48:55Z</time>
      </trkpt>
      <trkpt lat="44.12091" lon="2.31573">
        <ele>322.18</ele>
        <time>2015-04-07T14:49:10Z</time>
      </trkpt>
      <trkpt lat="44.12088" lon="2.31561">
        <ele>321.22</ele>
        <time>2015-04-07T14:49:22Z</time>
      </trkpt>
      <trkpt lat="44.12081" lon="2.31551">
        <ele>320.74</ele>
        <time>2015-04-07T14:49:36Z</time>
      </trkpt>
      <trkpt lat="44.12075" lon="2.3154">
        <ele>319.78</ele>
        <time>2015-04-07T14:49:53Z</time>
      </trkpt>
      <trkpt lat="44.12065" lon="2.31528">
        <ele>318.81</ele>
        <time>2015-04-07T14:50:08Z</time>
      </trkpt>
      <trkpt lat="44.12053" lon="2.31513">
        <ele>317.85</ele>
        <time>2015-04-07T14:50:26Z</time>
      </trkpt>
      <trkpt lat="44.12045" lon="2.31501">
        <ele>316.89</ele>
        <time>2015-04-07T14:50:42Z</time>
      </trkpt>
      <trkpt lat="44.12039" lon="2.3149">
        <ele>315.45</ele>
        <time>2015-04-07T14:50:55Z</time>
      </trkpt>
      <trkpt lat="44.12033" lon="2.31474">
        <ele>314.97</ele>
        <time>2015-04-07T14:51:09Z</time>
      </trkpt>
      <trkpt lat="44.12023" lon="2.31458">
        <ele>314.01</ele>
        <time>2015-04-07T14:51:25Z</time>
      </trkpt>
      <trkpt lat="44.12015" lon="2.31443">
        <ele>313.05</ele>
        <time>2015-04-07T14:51:40Z</time>
      </trkpt>
      <trkpt lat="44.12008" lon="2.3143">
        <ele>313.05</ele>
        <time>2015-04-07T14:51:53Z</time>
      </trkpt>
      <trkpt lat="44.11993" lon="2.31414">
        <ele>312.57</ele>
        <time>2015-04-07T14:52:10Z</time>
      </trkpt>
      <trkpt lat="44.11987" lon="2.31417">
        <ele>314.49</ele>
        <time>2015-04-07T14:52:22Z</time>
      </trkpt>
      <trkpt lat="44.11988" lon="2.31411">
        <ele>314.49</ele>
        <time>2015-04-07T14:52:37Z</time>
      </trkpt>
      <trkpt lat="44.11991" lon="2.31402">
        <ele>312.09</ele>
        <time>2015-04-07T14:52:55Z</time>
      </trkpt>
      <trkpt lat="44.11987" lon="2.31392">
        <ele>311.12</ele>
        <time>2015-04-07T14:53:10Z</time>
      </trkpt>
      <trkpt lat="44.11981" lon="2.31389">
        <ele>309.68</ele>
        <time>2015-04-07T14:53:22Z</time>
      </trkpt>
      <trkpt lat="44.11972" lon="2.31379">
        <ele>309.68</ele>
        <time>2015-04-07T14:53:37Z</time>
      </trkpt>
      <trkpt lat="44.11956" lon="2.31371">
        <ele>309.2</ele>
        <time>2015-04-07T14:53:52Z</time>
      </trkpt>
      <trkpt lat="44.11932" lon="2.31358">
        <ele>309.2</ele>
        <time>2015-04-07T14:54:07Z</time>
      </trkpt>
      <trkpt lat="44.11912" lon="2.31342">
        <ele>309.2</ele>
        <time>2015-04-07T14:54:21Z</time>
      </trkpt>
      <trkpt lat="44.11895" lon="2.31319">
        <ele>309.2</ele>
        <time>2015-04-07T14:54:35Z</time>
      </trkpt>
      <trkpt lat="44.11883" lon="2.31298">
        <ele>309.68</ele>
        <time>2015-04-07T14:54:49Z</time>
      </trkpt>
      <trkpt lat="44.11877" lon="2.31282">
        <ele>309.68</ele>
        <time>2015-04-07T14:55:02Z</time>
      </trkpt>
      <trkpt lat="44.11872" lon="2.31272">
        <ele>309.68</ele>
        <time>2015-04-07T14:55:04Z</time>
      </trkpt>
      <trkpt lat="44.11866" lon="2.31259">
        <ele>311.12</ele>
        <time>2015-04-07T14:55:18Z</time>
      </trkpt>
      <trkpt lat="44.11859" lon="2.3125">
        <ele>311.12</ele>
        <time>2015-04-07T14:55:19Z</time>
      </trkpt>
      <trkpt lat="44.11857" lon="2.31246">
        <ele>317.37</ele>
        <time>2015-04-07T14:56:18Z</time>
      </trkpt>
      <trkpt lat="44.11846" lon="2.31221">
        <ele>319.3</ele>
        <time>2015-04-07T14:56:34Z</time>
      </trkpt>
      <trkpt lat="44.11836" lon="2.31216">
        <ele>320.26</ele>
        <time>2015-04-07T14:56:49Z</time>
      </trkpt>
      <trkpt lat="44.11835" lon="2.31213">
        <ele>320.26</ele>
        <time>2015-04-07T14:57:09Z</time>
      </trkpt>
      <trkpt lat="44.11831" lon="2.31207">
        <ele>320.26</ele>
        <time>2015-04-07T14:57:17Z</time>
      </trkpt>
      <trkpt lat="44.11826" lon="2.31196">
        <ele>320.74</ele>
        <time>2015-04-07T14:57:27Z</time>
      </trkpt>
      <trkpt lat="44.11826" lon="2.31191">
        <ele>320.74</ele>
        <time>2015-04-07T14:57:31Z</time>
      </trkpt>
      <trkpt lat="44.11826" lon="2.31185">
        <ele>320.74</ele>
        <time>2015-04-07T14:57:35Z</time>
      </trkpt>
      <trkpt lat="44.11827" lon="2.31174">
        <ele>319.78</ele>
        <time>2015-04-07T14:57:46Z</time>
      </trkpt>
      <trkpt lat="44.11831" lon="2.31157">
        <ele>318.33</ele>
        <time>2015-04-07T14:58:00Z</time>
      </trkpt>
      <trkpt lat="44.11828" lon="2.31143">
        <ele>316.89</ele>
        <time>2015-04-07T14:58:17Z</time>
      </trkpt>
      <trkpt lat="44.11826" lon="2.31139">
        <ele>315.45</ele>
        <time>2015-04-07T14:58:26Z</time>
      </trkpt>
      <trkpt lat="44.11824" lon="2.31133">
        <ele>315.45</ele>
        <time>2015-04-07T14:58:29Z</time>
      </trkpt>
      <trkpt lat="44.11816" lon="2.3112">
        <ele>316.89</ele>
        <time>2015-04-07T14:58:39Z</time>
      </trkpt>
      <trkpt lat="44.11811" lon="2.31103">
        <ele>318.33</ele>
        <time>2015-04-07T14:59:21Z</time>
      </trkpt>
      <trkpt lat="44.11809" lon="2.31103">
        <ele>317.37</ele>
        <time>2015-04-07T14:59:26Z</time>
      </trkpt>
      <trkpt lat="44.11807" lon="2.31101">
        <ele>314.97</ele>
        <time>2015-04-07T14:59:37Z</time>
      </trkpt>
      <trkpt lat="44.11807" lon="2.31099">
        <ele>312.09</ele>
        <time>2015-04-07T14:59:47Z</time>
      </trkpt>
      <trkpt lat="44.11805" lon="2.31082">
        <ele>309.68</ele>
        <time>2015-04-07T14:59:57Z</time>
      </trkpt>
      <trkpt lat="44.11797" lon="2.31063">
        <ele>308.72</ele>
        <time>2015-04-07T15:00:10Z</time>
      </trkpt>
      <trkpt lat="44.11788" lon="2.31047">
        <ele>310.16</ele>
        <time>2015-04-07T15:00:13Z</time>
      </trkpt>
      <trkpt lat="44.11786" lon="2.31028">
        <ele>311.12</ele>
        <time>2015-04-07T15:00:27Z</time>
      </trkpt>
      <trkpt lat="44.11778" lon="2.3101">
        <ele>309.68</ele>
        <time>2015-04-07T15:00:34Z</time>
      </trkpt>
      <trkpt lat="44.11772" lon="2.3099">
        <ele>308.72</ele>
        <time>2015-04-07T15:00:47Z</time>
      </trkpt>
      <trkpt lat="44.11769" lon="2.30969">
        <ele>309.2</ele>
        <time>2015-04-07T15:01:00Z</time>
      </trkpt>
      <trkpt lat="44.11763" lon="2.30952">
        <ele>309.2</ele>
        <time>2015-04-07T15:01:13Z</time>
      </trkpt>
      <trkpt lat="44.11756" lon="2.30923">
        <ele>309.68</ele>
        <time>2015-04-07T15:01:30Z</time>
      </trkpt>
      <trkpt lat="44.11755" lon="2.30908">
        <ele>309.68</ele>
        <time>2015-04-07T15:01:35Z</time>
      </trkpt>
      <trkpt lat="44.11751" lon="2.30898">
        <ele>309.68</ele>
        <time>2015-04-07T15:01:50Z</time>
      </trkpt>
      <trkpt lat="44.11749" lon="2.30877">
        <ele>310.16</ele>
        <time>2015-04-07T15:02:02Z</time>
      </trkpt>
      <trkpt lat="44.11749" lon="2.3086">
        <ele>310.16</ele>
        <time>2015-04-07T15:02:14Z</time>
      </trkpt>
      <trkpt lat="44.11748" lon="2.30845">
        <ele>310.64</ele>
        <time>2015-04-07T15:02:29Z</time>
      </trkpt>
      <trkpt lat="44.11747" lon="2.30847">
        <ele>310.64</ele>
        <time>2015-04-07T15:02:30Z</time>
      </trkpt>
      <trkpt lat="44.11746" lon="2.30833">
        <ele>312.09</ele>
        <time>2015-04-07T15:02:43Z</time>
      </trkpt>
      <trkpt lat="44.11748" lon="2.3082">
        <ele>312.09</ele>
        <time>2015-04-07T15:02:56Z</time>
      </trkpt>
      <trkpt lat="44.11746" lon="2.308">
        <ele>313.05</ele>
        <time>2015-04-07T15:03:08Z</time>
      </trkpt>
      <trkpt lat="44.11749" lon="2.30774">
        <ele>313.53</ele>
        <time>2015-04-07T15:03:20Z</time>
      </trkpt>
      <trkpt lat="44.11753" lon="2.30755">
        <ele>314.01</ele>
        <time>2015-04-07T15:03:33Z</time>
      </trkpt>
      <trkpt lat="44.11755" lon="2.30747">
        <ele>315.45</ele>
        <time>2015-04-07T15:03:44Z</time>
      </trkpt>
      <trkpt lat="44.1176" lon="2.30734">
        <ele>316.89</ele>
        <time>2015-04-07T15:03:57Z</time>
      </trkpt>
      <trkpt lat="44.11771" lon="2.30698">
        <ele>324.58</ele>
        <time>2015-04-07T15:05:41Z</time>
      </trkpt>
      <trkpt lat="44.11767" lon="2.30697">
        <ele>323.14</ele>
        <time>2015-04-07T15:06:04Z</time>
      </trkpt>
      <trkpt lat="44.11767" lon="2.30699">
        <ele>323.14</ele>
        <time>2015-04-07T15:06:29Z</time>
      </trkpt>
      <trkpt lat="44.11768" lon="2.30692">
        <ele>290.94</ele>
        <time>2015-04-07T12:18:23Z</time>
      </trkpt>
      <trkpt lat="44.11765" lon="2.30698">
        <ele>291.42</ele>
        <time>2015-04-07T12:18:31Z</time>
      </trkpt>
      <trkpt lat="44.11762" lon="2.30702">
        <ele>291.9</ele>
        <time>2015-04-07T12:18:35Z</time>
      </trkpt>
      <trkpt lat="44.11759" lon="2.30717">
        <ele>292.86</ele>
        <time>2015-04-07T12:18:49Z</time>
      </trkpt>
      <trkpt lat="44.11751" lon="2.30724">
        <ele>293.34</ele>
        <time>2015-04-07T12:19:03Z</time>
      </trkpt>
      <trkpt lat="44.11746" lon="2.30727">
        <ele>293.82</ele>
        <time>2015-04-07T12:19:14Z</time>
      </trkpt>
      <trkpt lat="44.11745" lon="2.30721">
        <ele>295.26</ele>
        <time>2015-04-07T12:19:28Z</time>
      </trkpt>
      <trkpt lat="44.11746" lon="2.30714">
        <ele>297.67</ele>
        <time>2015-04-07T12:19:44Z</time>
      </trkpt>
      <trkpt lat="44.11754" lon="2.30696">
        <ele>301.99</ele>
        <time>2015-04-07T12:20:13Z</time>
      </trkpt>
      <trkpt lat="44.11754" lon="2.30685">
        <ele>304.88</ele>
        <time>2015-04-07T12:20:27Z</time>
      </trkpt>
      <trkpt lat="44.11757" lon="2.30672">
        <ele>307.76</ele>
        <time>2015-04-07T12:20:42Z</time>
      </trkpt>
      <trkpt lat="44.11763" lon="2.30661">
        <ele>309.68</ele>
        <time>2015-04-07T12:20:53Z</time>
      </trkpt>
      <trkpt lat="44.11772" lon="2.30639">
        <ele>314.01</ele>
        <time>2015-04-07T12:21:20Z</time>
      </trkpt>
      <trkpt lat="44.11775" lon="2.30629">
        <ele>315.45</ele>
        <time>2015-04-07T12:21:33Z</time>
      </trkpt>
      <trkpt lat="44.11779" lon="2.30617">
        <ele>317.85</ele>
        <time>2015-04-07T12:21:48Z</time>
      </trkpt>
      <trkpt lat="44.11783" lon="2.30602">
        <ele>320.74</ele>
        <time>2015-04-07T12:22:03Z</time>
      </trkpt>
      <trkpt lat="44.11782" lon="2.30595">
        <ele>322.66</ele>
        <time>2015-04-07T12:22:18Z</time>
      </trkpt>
      <trkpt lat="44.11778" lon="2.30602">
        <ele>324.58</ele>
        <time>2015-04-07T12:22:31Z</time>
      </trkpt>
      <trkpt lat="44.11773" lon="2.30612">
        <ele>326.02</ele>
        <time>2015-04-07T12:22:46Z</time>
      </trkpt>
      <trkpt lat="44.11768" lon="2.30619">
        <ele>327.95</ele>
        <time>2015-04-07T12:22:59Z</time>
      </trkpt>
      <trkpt lat="44.11761" lon="2.30625">
        <ele>330.83</ele>
        <time>2015-04-07T12:23:13Z</time>
      </trkpt>
      <trkpt lat="44.11756" lon="2.30632">
        <ele>332.27</ele>
        <time>2015-04-07T12:23:28Z</time>
      </trkpt>
      <trkpt lat="44.11755" lon="2.30624">
        <ele>335.16</ele>
        <time>2015-04-07T12:23:43Z</time>
      </trkpt>
      <trkpt lat="44.11756" lon="2.30617">
        <ele>337.56</ele>
        <time>2015-04-07T12:23:56Z</time>
      </trkpt>
      <trkpt lat="44.11757" lon="2.30603">
        <ele>339.96</ele>
        <time>2015-04-07T12:24:11Z</time>
      </trkpt>
      <trkpt lat="44.11754" lon="2.30592">
        <ele>342.85</ele>
        <time>2015-04-07T12:24:24Z</time>
      </trkpt>
      <trkpt lat="44.11746" lon="2.30599">
        <ele>344.29</ele>
        <time>2015-04-07T12:24:39Z</time>
      </trkpt>
      <trkpt lat="44.11741" lon="2.30609">
        <ele>346.21</ele>
        <time>2015-04-07T12:24:53Z</time>
      </trkpt>
      <trkpt lat="44.11735" lon="2.30622">
        <ele>348.62</ele>
        <time>2015-04-07T12:25:10Z</time>
      </trkpt>
      <trkpt lat="44.11729" lon="2.30632">
        <ele>350.54</ele>
        <time>2015-04-07T12:25:26Z</time>
      </trkpt>
      <trkpt lat="44.11722" lon="2.30638">
        <ele>352.94</ele>
        <time>2015-04-07T12:25:42Z</time>
      </trkpt>
      <trkpt lat="44.11714" lon="2.30645">
        <ele>355.83</ele>
        <time>2015-04-07T12:25:58Z</time>
      </trkpt>
      <trkpt lat="44.11706" lon="2.30645">
        <ele>357.27</ele>
        <time>2015-04-07T12:26:10Z</time>
      </trkpt>
      <trkpt lat="44.11694" lon="2.30638">
        <ele>359.67</ele>
        <time>2015-04-07T12:26:23Z</time>
      </trkpt>
      <trkpt lat="44.11683" lon="2.30648">
        <ele>362.07</ele>
        <time>2015-04-07T12:26:43Z</time>
      </trkpt>
      <trkpt lat="44.11685" lon="2.30663">
        <ele>364.48</ele>
        <time>2015-04-07T12:26:58Z</time>
      </trkpt>
      <trkpt lat="44.11682" lon="2.30675">
        <ele>367.36</ele>
        <time>2015-04-07T12:27:12Z</time>
      </trkpt>
      <trkpt lat="44.11676" lon="2.30689">
        <ele>369.28</ele>
        <time>2015-04-07T12:27:28Z</time>
      </trkpt>
      <trkpt lat="44.1167" lon="2.30695">
        <ele>372.17</ele>
        <time>2015-04-07T12:27:43Z</time>
      </trkpt>
      <trkpt lat="44.11661" lon="2.3069">
        <ele>375.05</ele>
        <time>2015-04-07T12:28:00Z</time>
      </trkpt>
      <trkpt lat="44.11653" lon="2.30689">
        <ele>375.53</ele>
        <time>2015-04-07T12:28:18Z</time>
      </trkpt>
      <trkpt lat="44.11651" lon="2.30692">
        <ele>376.01</ele>
        <time>2015-04-07T12:28:42Z</time>
      </trkpt>
      <trkpt lat="44.1165" lon="2.30695">
        <ele>376.49</ele>
        <time>2015-04-07T12:29:09Z</time>
      </trkpt>
      <trkpt lat="44.1165" lon="2.30699">
        <ele>377.94</ele>
        <time>2015-04-07T12:29:32Z</time>
      </trkpt>
      <trkpt lat="44.11644" lon="2.30707">
        <ele>380.34</ele>
        <time>2015-04-07T12:29:49Z</time>
      </trkpt>
      <trkpt lat="44.11636" lon="2.30716">
        <ele>382.74</ele>
        <time>2015-04-07T12:30:05Z</time>
      </trkpt>
      <trkpt lat="44.11628" lon="2.30724">
        <ele>384.18</ele>
        <time>2015-04-07T12:30:19Z</time>
      </trkpt>
      <trkpt lat="44.11622" lon="2.30727">
        <ele>386.11</ele>
        <time>2015-04-07T12:30:34Z</time>
      </trkpt>
      <trkpt lat="44.11615" lon="2.30723">
        <ele>386.59</ele>
        <time>2015-04-07T12:30:56Z</time>
      </trkpt>
      <trkpt lat="44.11614" lon="2.30729">
        <ele>386.59</ele>
        <time>2015-04-07T12:31:12Z</time>
      </trkpt>
      <trkpt lat="44.11611" lon="2.30732">
        <ele>387.07</ele>
        <time>2015-04-07T12:31:17Z</time>
      </trkpt>
      <trkpt lat="44.11607" lon="2.30737">
        <ele>388.03</ele>
        <time>2015-04-07T12:31:27Z</time>
      </trkpt>
      <trkpt lat="44.11598" lon="2.30745">
        <ele>389.47</ele>
        <time>2015-04-07T12:31:41Z</time>
      </trkpt>
      <trkpt lat="44.11589" lon="2.30754">
        <ele>390.91</ele>
        <time>2015-04-07T12:31:55Z</time>
      </trkpt>
      <trkpt lat="44.11584" lon="2.30759">
        <ele>392.36</ele>
        <time>2015-04-07T12:32:04Z</time>
      </trkpt>
      <trkpt lat="44.11573" lon="2.30766">
        <ele>394.76</ele>
        <time>2015-04-07T12:32:19Z</time>
      </trkpt>
      <trkpt lat="44.11565" lon="2.30772">
        <ele>396.68</ele>
        <time>2015-04-07T12:32:31Z</time>
      </trkpt>
      <trkpt lat="44.11557" lon="2.30777">
        <ele>398.6</ele>
        <time>2015-04-07T12:32:43Z</time>
      </trkpt>
      <trkpt lat="44.11546" lon="2.30783">
        <ele>400.05</ele>
        <time>2015-04-07T12:32:57Z</time>
      </trkpt>
      <trkpt lat="44.11537" lon="2.30792">
        <ele>402.45</ele>
        <time>2015-04-07T12:33:09Z</time>
      </trkpt>
      <trkpt lat="44.1153" lon="2.30803">
        <ele>403.89</ele>
        <time>2015-04-07T12:33:21Z</time>
      </trkpt>
      <trkpt lat="44.11523" lon="2.30816">
        <ele>405.81</ele>
        <time>2015-04-07T12:33:35Z</time>
      </trkpt>
      <trkpt lat="44.11521" lon="2.30823">
        <ele>407.26</ele>
        <time>2015-04-07T12:33:43Z</time>
      </trkpt>
      <trkpt lat="44.11519" lon="2.30827">
        <ele>408.22</ele>
        <time>2015-04-07T12:33:48Z</time>
      </trkpt>
      <trkpt lat="44.11515" lon="2.30842">
        <ele>410.62</ele>
        <time>2015-04-07T12:34:04Z</time>
      </trkpt>
      <trkpt lat="44.11511" lon="2.30854">
        <ele>412.54</ele>
        <time>2015-04-07T12:34:18Z</time>
      </trkpt>
      <trkpt lat="44.11505" lon="2.30869">
        <ele>414.95</ele>
        <time>2015-04-07T12:34:34Z</time>
      </trkpt>
      <trkpt lat="44.11497" lon="2.30887">
        <ele>416.87</ele>
        <time>2015-04-07T12:34:50Z</time>
      </trkpt>
      <trkpt lat="44.11488" lon="2.30902">
        <ele>417.83</ele>
        <time>2015-04-07T12:35:05Z</time>
      </trkpt>
      <trkpt lat="44.11481" lon="2.30917">
        <ele>420.23</ele>
        <time>2015-04-07T12:35:19Z</time>
      </trkpt>
      <trkpt lat="44.11472" lon="2.3093">
        <ele>422.64</ele>
        <time>2015-04-07T12:35:34Z</time>
      </trkpt>
      <trkpt lat="44.11465" lon="2.30943">
        <ele>424.56</ele>
        <time>2015-04-07T12:35:49Z</time>
      </trkpt>
      <trkpt lat="44.11455" lon="2.30957">
        <ele>426.48</ele>
        <time>2015-04-07T12:36:06Z</time>
      </trkpt>
      <trkpt lat="44.11446" lon="2.30967">
        <ele>428.4</ele>
        <time>2015-04-07T12:36:21Z</time>
      </trkpt>
      <trkpt lat="44.11441" lon="2.3097">
        <ele>428.89</ele>
        <time>2015-04-07T12:36:40Z</time>
      </trkpt>
      <trkpt lat="44.11437" lon="2.30976">
        <ele>429.37</ele>
        <time>2015-04-07T12:36:56Z</time>
      </trkpt>
      <trkpt lat="44.11432" lon="2.30984">
        <ele>430.33</ele>
        <time>2015-04-07T12:37:09Z</time>
      </trkpt>
      <trkpt lat="44.11425" lon="2.30995">
        <ele>431.29</ele>
        <time>2015-04-07T12:37:22Z</time>
      </trkpt>
      <trkpt lat="44.11417" lon="2.3101">
        <ele>432.73</ele>
        <time>2015-04-07T12:37:38Z</time>
      </trkpt>
      <trkpt lat="44.11409" lon="2.31024">
        <ele>433.21</ele>
        <time>2015-04-07T12:37:50Z</time>
      </trkpt>
      <trkpt lat="44.11405" lon="2.31031">
        <ele>434.17</ele>
        <time>2015-04-07T12:37:57Z</time>
      </trkpt>
      <trkpt lat="44.11395" lon="2.31051">
        <ele>435.61</ele>
        <time>2015-04-07T12:38:13Z</time>
      </trkpt>
      <trkpt lat="44.11385" lon="2.31069">
        <ele>436.1</ele>
        <time>2015-04-07T12:38:28Z</time>
      </trkpt>
      <trkpt lat="44.11384" lon="2.3107">
        <ele>436.1</ele>
        <time>2015-04-07T12:38:29Z</time>
      </trkpt>
      <trkpt lat="44.11381" lon="2.31075">
        <ele>436.1</ele>
        <time>2015-04-07T12:38:33Z</time>
      </trkpt>
      <trkpt lat="44.11368" lon="2.31096">
        <ele>436.58</ele>
        <time>2015-04-07T12:38:50Z</time>
      </trkpt>
      <trkpt lat="44.11357" lon="2.31119">
        <ele>436.58</ele>
        <time>2015-04-07T12:39:07Z</time>
      </trkpt>
      <trkpt lat="44.11344" lon="2.31139">
        <ele>436.58</ele>
        <time>2015-04-07T12:39:23Z</time>
      </trkpt>
      <trkpt lat="44.1133" lon="2.31158">
        <ele>437.06</ele>
        <time>2015-04-07T12:39:40Z</time>
      </trkpt>
      <trkpt lat="44.11315" lon="2.31177">
        <ele>438.5</ele>
        <time>2015-04-07T12:39:57Z</time>
      </trkpt>
      <trkpt lat="44.11301" lon="2.31192">
        <ele>438.98</ele>
        <time>2015-04-07T12:40:13Z</time>
      </trkpt>
      <trkpt lat="44.11296" lon="2.31193">
        <ele>438.98</ele>
        <time>2015-04-07T12:40:17Z</time>
      </trkpt>
      <trkpt lat="44.11291" lon="2.31195">
        <ele>438.98</ele>
        <time>2015-04-07T12:40:22Z</time>
      </trkpt>
      <trkpt lat="44.11271" lon="2.31189">
        <ele>438.98</ele>
        <time>2015-04-07T12:40:40Z</time>
      </trkpt>
      <trkpt lat="44.1125" lon="2.31176">
        <ele>438.98</ele>
        <time>2015-04-07T12:40:59Z</time>
      </trkpt>
      <trkpt lat="44.11233" lon="2.31173">
        <ele>438.02</ele>
        <time>2015-04-07T12:41:15Z</time>
      </trkpt>
      <trkpt lat="44.11213" lon="2.3118">
        <ele>437.54</ele>
        <time>2015-04-07T12:41:33Z</time>
      </trkpt>
      <trkpt lat="44.1119" lon="2.31194">
        <ele>437.06</ele>
        <time>2015-04-07T12:41:54Z</time>
      </trkpt>
      <trkpt lat="44.11164" lon="2.312">
        <ele>436.58</ele>
        <time>2015-04-07T12:42:15Z</time>
      </trkpt>
      <trkpt lat="44.11142" lon="2.31197">
        <ele>437.06</ele>
        <time>2015-04-07T12:42:33Z</time>
      </trkpt>
      <trkpt lat="44.11122" lon="2.3119">
        <ele>436.58</ele>
        <time>2015-04-07T12:42:50Z</time>
      </trkpt>
      <trkpt lat="44.111" lon="2.31182">
        <ele>436.58</ele>
        <time>2015-04-07T12:43:09Z</time>
      </trkpt>
      <trkpt lat="44.11078" lon="2.31175">
        <ele>436.58</ele>
        <time>2015-04-07T12:43:28Z</time>
      </trkpt>
      <trkpt lat="44.11053" lon="2.31166">
        <ele>436.1</ele>
        <time>2015-04-07T12:43:50Z</time>
      </trkpt>
      <trkpt lat="44.11033" lon="2.3116">
        <ele>436.1</ele>
        <time>2015-04-07T12:44:08Z</time>
      </trkpt>
      <trkpt lat="44.11011" lon="2.31152">
        <ele>436.1</ele>
        <time>2015-04-07T12:44:28Z</time>
      </trkpt>
      <trkpt lat="44.10991" lon="2.31145">
        <ele>436.1</ele>
        <time>2015-04-07T12:44:44Z</time>
      </trkpt>
      <trkpt lat="44.10969" lon="2.31137">
        <ele>435.61</ele>
        <time>2015-04-07T12:45:03Z</time>
      </trkpt>
      <trkpt lat="44.10946" lon="2.31129">
        <ele>435.13</ele>
        <time>2015-04-07T12:45:23Z</time>
      </trkpt>
      <trkpt lat="44.10925" lon="2.3112">
        <ele>433.69</ele>
        <time>2015-04-07T12:45:41Z</time>
      </trkpt>
      <trkpt lat="44.10904" lon="2.31114">
        <ele>432.73</ele>
        <time>2015-04-07T12:45:59Z</time>
      </trkpt>
      <trkpt lat="44.10878" lon="2.31105">
        <ele>431.29</ele>
        <time>2015-04-07T12:46:20Z</time>
      </trkpt>
      <trkpt lat="44.10855" lon="2.31097">
        <ele>429.85</ele>
        <time>2015-04-07T12:46:39Z</time>
      </trkpt>
      <trkpt lat="44.10829" lon="2.31088">
        <ele>428.4</ele>
        <time>2015-04-07T12:47:00Z</time>
      </trkpt>
      <trkpt lat="44.10808" lon="2.31081">
        <ele>427.92</ele>
        <time>2015-04-07T12:47:18Z</time>
      </trkpt>
      <trkpt lat="44.10783" lon="2.31073">
        <ele>426.96</ele>
        <time>2015-04-07T12:47:38Z</time>
      </trkpt>
      <trkpt lat="44.10761" lon="2.31063">
        <ele>426</ele>
        <time>2015-04-07T12:47:56Z</time>
      </trkpt>
      <trkpt lat="44.10734" lon="2.31045">
        <ele>425.52</ele>
        <time>2015-04-07T12:48:20Z</time>
      </trkpt>
      <trkpt lat="44.1072" lon="2.31033">
        <ele>425.04</ele>
        <time>2015-04-07T12:48:33Z</time>
      </trkpt>
      <trkpt lat="44.10699" lon="2.31025">
        <ele>423.6</ele>
        <time>2015-04-07T12:48:51Z</time>
      </trkpt>
      <trkpt lat="44.10676" lon="2.31032">
        <ele>423.12</ele>
        <time>2015-04-07T12:49:12Z</time>
      </trkpt>
      <trkpt lat="44.10667" lon="2.31047">
        <ele>423.12</ele>
        <time>2015-04-07T12:49:28Z</time>
      </trkpt>
      <trkpt lat="44.10665" lon="2.31049">
        <ele>423.12</ele>
        <time>2015-04-07T12:49:32Z</time>
      </trkpt>
      <trkpt lat="44.10652" lon="2.31079">
        <ele>423.12</ele>
        <time>2015-04-07T12:49:46Z</time>
      </trkpt>
      <trkpt lat="44.10646" lon="2.31109">
        <ele>423.12</ele>
        <time>2015-04-07T12:50:04Z</time>
      </trkpt>
      <trkpt lat="44.10641" lon="2.31123">
        <ele>424.56</ele>
        <time>2015-04-07T12:50:13Z</time>
      </trkpt>
      <trkpt lat="44.10633" lon="2.31146">
        <ele>425.52</ele>
        <time>2015-04-07T12:50:29Z</time>
      </trkpt>
      <trkpt lat="44.10623" lon="2.31172">
        <ele>427.44</ele>
        <time>2015-04-07T12:50:46Z</time>
      </trkpt>
      <trkpt lat="44.10615" lon="2.31199">
        <ele>427.92</ele>
        <time>2015-04-07T12:51:04Z</time>
      </trkpt>
      <trkpt lat="44.10606" lon="2.31224">
        <ele>429.85</ele>
        <time>2015-04-07T12:51:21Z</time>
      </trkpt>
      <trkpt lat="44.10598" lon="2.31252">
        <ele>431.29</ele>
        <time>2015-04-07T12:51:40Z</time>
      </trkpt>
      <trkpt lat="44.10594" lon="2.31265">
        <ele>431.29</ele>
        <time>2015-04-07T12:51:54Z</time>
      </trkpt>
      <trkpt lat="44.10594" lon="2.31266">
        <ele>426.48</ele>
        <time>2015-04-07T12:52:04Z</time>
      </trkpt>
      <trkpt lat="44.10594" lon="2.31267">
        <ele>438.5</ele>
        <time>2015-04-07T12:52:05Z</time>
      </trkpt>
      <trkpt lat="44.10593" lon="2.31267">
        <ele>432.25</ele>
        <time>2015-04-07T12:52:06Z</time>
      </trkpt>
      <trkpt lat="44.10591" lon="2.31265">
        <ele>430.81</ele>
        <time>2015-04-07T12:52:29Z</time>
      </trkpt>
      <trkpt lat="44.10592" lon="2.31266">
        <ele>431.29</ele>
        <time>2015-04-07T12:52:59Z</time>
      </trkpt>
      <trkpt lat="44.10592" lon="2.31267">
        <ele>431.29</ele>
        <time>2015-04-07T12:53:20Z</time>
      </trkpt>
      <trkpt lat="44.10593" lon="2.31273">
        <ele>431.29</ele>
        <time>2015-04-07T12:53:24Z</time>
      </trkpt>
      <trkpt lat="44.10596" lon="2.31277">
        <ele>431.29</ele>
        <time>2015-04-07T12:53:28Z</time>
      </trkpt>
      <trkpt lat="44.10597" lon="2.31279">
        <ele>431.29</ele>
        <time>2015-04-07T12:53:30Z</time>
      </trkpt>
      <trkpt lat="44.10601" lon="2.31282">
        <ele>431.29</ele>
        <time>2015-04-07T12:53:34Z</time>
      </trkpt>
      <trkpt lat="44.10614" lon="2.31289">
        <ele>432.73</ele>
        <time>2015-04-07T12:53:47Z</time>
      </trkpt>
      <trkpt lat="44.10622" lon="2.31291">
        <ele>432.73</ele>
        <time>2015-04-07T12:53:58Z</time>
      </trkpt>
      <trkpt lat="44.10636" lon="2.31292">
        <ele>432.73</ele>
        <time>2015-04-07T12:54:10Z</time>
      </trkpt>
      <trkpt lat="44.10641" lon="2.31292">
        <ele>433.69</ele>
        <time>2015-04-07T12:54:14Z</time>
      </trkpt>
      <trkpt lat="44.10654" lon="2.31292">
        <ele>434.17</ele>
        <time>2015-04-07T12:54:27Z</time>
      </trkpt>
      <trkpt lat="44.10655" lon="2.31294">
        <ele>434.17</ele>
        <time>2015-04-07T12:54:37Z</time>
      </trkpt>
      <trkpt lat="44.10679" lon="2.31293">
        <ele>435.13</ele>
        <time>2015-04-07T12:54:57Z</time>
      </trkpt>
      <trkpt lat="44.10702" lon="2.3129">
        <ele>436.1</ele>
        <time>2015-04-07T12:55:16Z</time>
      </trkpt>
      <trkpt lat="44.10729" lon="2.31296">
        <ele>437.06</ele>
        <time>2015-04-07T12:55:39Z</time>
      </trkpt>
      <trkpt lat="44.10738" lon="2.31326">
        <ele>438.5</ele>
        <time>2015-04-07T12:55:58Z</time>
      </trkpt>
      <trkpt lat="44.10742" lon="2.31361">
        <ele>439.94</ele>
        <time>2015-04-07T12:56:19Z</time>
      </trkpt>
      <trkpt lat="44.10748" lon="2.31395">
        <ele>441.38</ele>
        <time>2015-04-07T12:56:39Z</time>
      </trkpt>
      <trkpt lat="44.1075" lon="2.31424">
        <ele>441.86</ele>
        <time>2015-04-07T12:56:56Z</time>
      </trkpt>
      <trkpt lat="44.10752" lon="2.31451">
        <ele>442.34</ele>
        <time>2015-04-07T12:57:13Z</time>
      </trkpt>
      <trkpt lat="44.10739" lon="2.31469">
        <ele>442.34</ele>
        <time>2015-04-07T12:57:30Z</time>
      </trkpt>
      <trkpt lat="44.1072" lon="2.31485">
        <ele>443.31</ele>
        <time>2015-04-07T12:57:48Z</time>
      </trkpt>
      <trkpt lat="44.10693" lon="2.31502">
        <ele>443.31</ele>
        <time>2015-04-07T12:58:11Z</time>
      </trkpt>
      <trkpt lat="44.10678" lon="2.31513">
        <ele>441.86</ele>
        <time>2015-04-07T12:58:24Z</time>
      </trkpt>
      <trkpt lat="44.10649" lon="2.31532">
        <ele>441.86</ele>
        <time>2015-04-07T12:58:48Z</time>
      </trkpt>
      <trkpt lat="44.10619" lon="2.31553">
        <ele>441.86</ele>
        <time>2015-04-07T12:59:14Z</time>
      </trkpt>
      <trkpt lat="44.10597" lon="2.31567">
        <ele>441.86</ele>
        <time>2015-04-07T12:59:34Z</time>
      </trkpt>
      <trkpt lat="44.10572" lon="2.31585">
        <ele>443.31</ele>
        <time>2015-04-07T12:59:55Z</time>
      </trkpt>
      <trkpt lat="44.10543" lon="2.31602">
        <ele>443.31</ele>
        <time>2015-04-07T13:00:19Z</time>
      </trkpt>
      <trkpt lat="44.10535" lon="2.31606">
        <ele>443.31</ele>
        <time>2015-04-07T13:00:25Z</time>
      </trkpt>
      <trkpt lat="44.1051" lon="2.31619">
        <ele>444.27</ele>
        <time>2015-04-07T13:00:45Z</time>
      </trkpt>
      <trkpt lat="44.10479" lon="2.31633">
        <ele>444.75</ele>
        <time>2015-04-07T13:01:11Z</time>
      </trkpt>
      <trkpt lat="44.10455" lon="2.3164">
        <ele>444.75</ele>
        <time>2015-04-07T13:01:30Z</time>
      </trkpt>
      <trkpt lat="44.10423" lon="2.31648">
        <ele>444.75</ele>
        <time>2015-04-07T13:01:56Z</time>
      </trkpt>
      <trkpt lat="44.10394" lon="2.31652">
        <ele>444.75</ele>
        <time>2015-04-07T13:02:19Z</time>
      </trkpt>
      <trkpt lat="44.10369" lon="2.31653">
        <ele>444.75</ele>
        <time>2015-04-07T13:02:38Z</time>
      </trkpt>
      <trkpt lat="44.10339" lon="2.31653">
        <ele>444.75</ele>
        <time>2015-04-07T13:03:01Z</time>
      </trkpt>
      <trkpt lat="44.10318" lon="2.31665">
        <ele>444.75</ele>
        <time>2015-04-07T13:03:22Z</time>
      </trkpt>
      <trkpt lat="44.10304" lon="2.31691">
        <ele>444.75</ele>
        <time>2015-04-07T13:03:41Z</time>
      </trkpt>
      <trkpt lat="44.10296" lon="2.31721">
        <ele>445.23</ele>
        <time>2015-04-07T13:04:01Z</time>
      </trkpt>
      <trkpt lat="44.10284" lon="2.3175">
        <ele>445.23</ele>
        <time>2015-04-07T13:04:20Z</time>
      </trkpt>
      <trkpt lat="44.10275" lon="2.31777">
        <ele>445.23</ele>
        <time>2015-04-07T13:04:38Z</time>
      </trkpt>
      <trkpt lat="44.10267" lon="2.31792">
        <ele>444.27</ele>
        <time>2015-04-07T13:04:50Z</time>
      </trkpt>
      <trkpt lat="44.10257" lon="2.31794">
        <ele>444.27</ele>
        <time>2015-04-07T13:04:58Z</time>
      </trkpt>
      <trkpt lat="44.10245" lon="2.31793">
        <ele>444.27</ele>
        <time>2015-04-07T13:05:07Z</time>
      </trkpt>
      <trkpt lat="44.10226" lon="2.31786">
        <ele>444.27</ele>
        <time>2015-04-07T13:05:25Z</time>
      </trkpt>
      <trkpt lat="44.10219" lon="2.31791">
        <ele>443.79</ele>
        <time>2015-04-07T13:05:38Z</time>
      </trkpt>
      <trkpt lat="44.10218" lon="2.31793">
        <ele>444.27</ele>
        <time>2015-04-07T13:05:42Z</time>
      </trkpt>
      <trkpt lat="44.1021" lon="2.31818">
        <ele>444.27</ele>
        <time>2015-04-07T13:06:02Z</time>
      </trkpt>
      <trkpt lat="44.10207" lon="2.3184">
        <ele>444.27</ele>
        <time>2015-04-07T13:06:19Z</time>
      </trkpt>
      <trkpt lat="44.10206" lon="2.3185">
        <ele>445.71</ele>
        <time>2015-04-07T13:06:28Z</time>
      </trkpt>
    </trkseg>
  </trk>
</gpx>